createdAt,value
2019-06-20T00:00:25.469Z,21.00
2019-06-20T00:02:55.471Z,20.27
2019-06-20T00:05:26.194Z,20.52
2019-06-20T00:07:55.602Z,20.32
2019-06-20T00:10:26.144Z,19.67
2019-06-20T00:13:00.419Z,19.07
2019-06-20T00:15:27.192Z,20.27
2019-06-20T00:17:56.701Z,21.05
2019-06-20T00:20:26.322Z,20.10
2019-06-20T00:22:55.912Z,21.45
2019-06-20T00:25:25.521Z,21.20
2019-06-20T00:27:56.104Z,22.58
2019-06-20T00:30:25.750Z,22.93
2019-06-20T00:32:55.880Z,21.48
2019-06-20T00:35:25.364Z,22.67
2019-06-20T00:37:55.099Z,22.13
2019-06-20T00:40:24.793Z,23.67
2019-06-20T00:42:55.521Z,22.25
2019-06-20T00:45:25.230Z,22.70
2019-06-20T00:47:54.695Z,21.23
2019-06-20T00:50:25.207Z,20.88
2019-06-20T00:52:54.771Z,25.75
2019-06-20T00:55:24.389Z,23.98
2019-06-20T00:57:53.805Z,25.02
2019-06-20T01:00:23.703Z,26.82
2019-06-20T01:02:53.309Z,28.07
2019-06-20T01:05:22.965Z,24.60
2019-06-20T01:07:52.405Z,25.88
2019-06-20T01:10:21.927Z,24.95
2019-06-20T01:12:51.424Z,22.95
2019-06-20T01:15:20.940Z,25.15
2019-06-20T01:17:50.537Z,22.42
2019-06-20T01:20:20.242Z,21.55
2019-06-20T01:22:49.778Z,24.87
2019-06-20T01:25:23.371Z,22.90
2019-06-20T01:27:52.853Z,21.77
2019-06-20T01:30:23.586Z,19.67
2019-06-20T01:32:53.091Z,20.35
2019-06-20T01:35:22.592Z,20.90
2019-06-20T01:37:52.199Z,20.80
2019-06-20T01:40:21.714Z,21.15
2019-06-20T01:42:51.239Z,21.87
2019-06-20T01:45:20.928Z,21.97
2019-06-20T01:47:50.466Z,20.82
2019-06-20T01:50:20.346Z,20.75
2019-06-20T01:52:49.850Z,21.30
2019-06-20T01:55:19.555Z,18.25
2019-06-20T01:57:49.250Z,17.82
2019-06-20T02:00:21.844Z,17.73
2019-06-20T02:02:51.346Z,18.15
2019-06-20T02:05:20.824Z,18.82
2019-06-20T02:07:50.453Z,19.17
2019-06-20T02:10:20.266Z,20.05
2019-06-20T02:12:49.976Z,19.27
2019-06-20T02:15:19.688Z,18.95
2019-06-20T02:17:49.217Z,17.02
2019-06-20T02:20:21.870Z,18.92
2019-06-20T02:22:51.486Z,17.55
2019-06-20T02:25:21.191Z,18.17
2019-06-20T02:27:50.796Z,17.65
2019-06-20T02:30:20.815Z,19.10
2019-06-20T02:32:50.530Z,18.10
2019-06-20T02:35:20.023Z,18.23
2019-06-20T02:37:50.654Z,17.87
2019-06-20T02:40:20.274Z,17.05
2019-06-20T02:42:49.893Z,17.65
2019-06-20T02:45:19.824Z,17.55
2019-06-20T02:47:49.368Z,16.52
2019-06-20T02:50:20.226Z,16.15
2019-06-20T02:52:49.944Z,16.30
2019-06-20T02:55:19.549Z,16.40
2019-06-20T02:57:49.012Z,16.23
2019-06-20T03:00:21.627Z,16.42
2019-06-20T03:02:51.049Z,18.62
2019-06-20T03:05:20.630Z,17.48
2019-06-20T03:07:50.142Z,17.98
2019-06-20T03:10:20.017Z,17.20
2019-06-20T03:12:49.604Z,15.43
2019-06-20T03:15:19.150Z,16.67
2019-06-20T03:17:48.667Z,23.20
2019-06-20T03:20:18.224Z,25.08
2019-06-20T03:22:47.748Z,19.62
2019-06-20T03:25:18.856Z,17.75
2019-06-20T03:27:48.527Z,22.35
2019-06-20T03:30:18.486Z,17.98
2019-06-20T03:32:48.048Z,21.90
2019-06-20T03:35:17.561Z,20.70
2019-06-20T03:37:50.119Z,20.20
2019-06-20T03:40:18.409Z,16.73
2019-06-20T03:42:47.901Z,15.68
2019-06-20T03:45:17.622Z,14.70
2019-06-20T03:47:47.016Z,15.25
2019-06-20T03:50:16.695Z,14.13
2019-06-20T03:52:47.877Z,14.68
2019-06-20T03:55:17.490Z,14.23
2019-06-20T03:57:47.074Z,14.23
2019-06-20T04:00:18.217Z,12.90
2019-06-20T04:02:47.721Z,13.35
2019-06-20T04:05:17.440Z,13.68
2019-06-20T04:07:46.952Z,12.50
2019-06-20T04:10:16.512Z,13.75
2019-06-20T04:12:46.060Z,14.40
2019-06-20T04:15:19.411Z,13.83
2019-06-20T04:17:46.679Z,13.68
2019-06-20T04:20:18.067Z,13.83
2019-06-20T04:22:47.686Z,14.00
2019-06-20T04:25:17.377Z,12.82
2019-06-20T04:27:46.867Z,12.33
2019-06-20T04:30:17.572Z,13.58
2019-06-20T04:32:47.127Z,13.15
2019-06-20T04:35:16.596Z,13.03
2019-06-20T04:37:46.304Z,13.95
2019-06-20T04:40:16.940Z,13.48
2019-06-20T04:42:46.559Z,12.88
2019-06-20T04:45:17.708Z,13.55
2019-06-20T04:47:47.246Z,13.22
2019-06-20T04:50:16.823Z,14.03
2019-06-20T04:52:46.434Z,13.68
2019-06-20T04:55:16.139Z,13.15
2019-06-20T04:57:45.756Z,14.38
2019-06-20T05:00:15.544Z,13.70
2019-06-20T05:02:45.165Z,13.93
2019-06-20T05:05:15.320Z,14.07
2019-06-20T05:07:44.887Z,13.22
2019-06-20T05:10:14.574Z,13.78
2019-06-20T05:12:44.105Z,13.00
2019-06-20T05:15:14.121Z,13.70
2019-06-20T05:17:43.629Z,13.43
2019-06-20T05:20:13.255Z,12.40
2019-06-20T05:22:42.745Z,11.73
2019-06-20T05:25:13.622Z,13.83
2019-06-20T05:27:43.201Z,12.47
2019-06-20T05:30:14.105Z,11.75
2019-06-20T05:32:43.711Z,12.70
2019-06-20T05:35:15.574Z,11.68
2019-06-20T05:37:45.191Z,11.30
2019-06-20T05:40:15.084Z,11.38
2019-06-20T05:42:44.539Z,11.83
2019-06-20T05:45:14.623Z,12.13
2019-06-20T05:47:45.158Z,13.13
2019-06-20T05:50:15.782Z,12.95
2019-06-20T05:52:45.358Z,12.20
2019-06-20T05:55:15.404Z,12.00
2019-06-20T05:57:45.074Z,11.53
2019-06-20T06:00:16.065Z,12.85
2019-06-20T06:02:45.563Z,11.85
2019-06-20T06:05:15.149Z,12.10
2019-06-20T06:07:44.671Z,12.18
2019-06-20T06:10:14.588Z,11.48
2019-06-20T06:12:45.174Z,11.25
2019-06-20T06:15:15.134Z,11.45
2019-06-20T06:17:44.696Z,11.48
2019-06-20T06:20:16.194Z,11.33
2019-06-20T06:22:45.697Z,10.50
2019-06-20T06:25:15.435Z,11.88
2019-06-20T06:27:44.886Z,11.73
2019-06-20T06:30:14.907Z,11.95
2019-06-20T06:32:44.311Z,11.28
2019-06-20T06:35:14.350Z,11.55
2019-06-20T06:37:44.048Z,10.80
2019-06-20T06:40:14.992Z,11.50
2019-06-20T06:42:44.530Z,11.43
2019-06-20T06:45:14.632Z,10.78
2019-06-20T06:47:44.127Z,11.18
2019-06-20T06:50:14.274Z,11.15
2019-06-20T06:52:43.889Z,10.58
2019-06-20T06:55:13.780Z,10.80
2019-06-20T06:57:43.353Z,10.05
2019-06-20T07:00:15.176Z,10.20
2019-06-20T07:02:44.784Z,9.73
2019-06-20T07:05:14.439Z,10.70
2019-06-20T07:07:44.046Z,10.45
2019-06-20T07:10:13.655Z,10.05
2019-06-20T07:12:43.494Z,10.35
2019-06-20T07:15:16.302Z,10.75
2019-06-20T07:17:45.869Z,11.12
2019-06-20T07:20:16.027Z,10.03
2019-06-20T07:22:45.507Z,10.45
2019-06-20T07:25:15.470Z,10.08
2019-06-20T07:27:45.033Z,9.33
2019-06-20T07:30:16.656Z,10.30
2019-06-20T07:32:46.269Z,9.33
2019-06-20T07:35:16.240Z,9.53
2019-06-20T07:37:45.741Z,9.98
2019-06-20T07:40:16.516Z,9.98
2019-06-20T07:42:47.249Z,9.60
2019-06-20T07:45:17.271Z,9.50
2019-06-20T07:47:46.916Z,9.40
2019-06-20T07:50:16.931Z,9.15
2019-06-20T07:53:00.947Z,9.45
2019-06-20T07:55:17.699Z,9.18
2019-06-20T07:57:47.248Z,9.23
2019-06-20T08:00:17.268Z,9.28
2019-06-20T08:02:46.768Z,10.10
2019-06-20T08:05:16.668Z,9.08
2019-06-20T08:07:46.196Z,9.73
2019-06-20T08:10:18.378Z,9.58
2019-06-20T08:12:47.795Z,9.13
2019-06-20T08:15:19.117Z,9.90
2019-06-20T08:17:48.607Z,10.30
2019-06-20T08:20:18.842Z,8.75
2019-06-20T08:22:48.232Z,9.38
2019-06-20T08:25:18.030Z,9.50
2019-06-20T08:27:49.179Z,9.08
2019-06-20T08:30:21.538Z,9.53
2019-06-20T08:32:51.146Z,9.58
2019-06-20T08:35:23.002Z,9.45
2019-06-20T08:37:53.543Z,9.10
2019-06-20T08:40:24.854Z,9.15
2019-06-20T08:42:55.316Z,9.25
2019-06-20T08:45:27.842Z,9.65
2019-06-20T08:47:58.306Z,9.40
2019-06-20T08:50:28.109Z,9.13
2019-06-20T08:52:58.603Z,9.35
2019-06-20T08:55:29.080Z,10.60
2019-06-20T08:57:59.724Z,9.88
2019-06-20T09:00:33.741Z,9.50
2019-06-20T09:05:33.267Z,10.35
2019-06-20T09:10:35.684Z,9.45
2019-06-20T09:13:05.898Z,9.65
2019-06-20T09:15:35.702Z,9.23
2019-06-20T09:18:05.841Z,9.93
2019-06-20T09:20:35.917Z,9.68
2019-06-20T09:23:05.837Z,9.90
2019-06-20T09:25:37.230Z,10.10
2019-06-20T09:28:07.312Z,9.33
2019-06-20T09:30:37.543Z,8.63
2019-06-20T09:33:07.179Z,9.20
2019-06-20T09:35:36.835Z,8.98
2019-06-20T09:38:06.548Z,8.35
2019-06-20T09:40:36.258Z,8.35
2019-06-20T09:43:06.134Z,8.35
2019-06-20T09:45:35.795Z,6.70
2019-06-20T09:48:05.343Z,7.35
2019-06-20T09:50:36.120Z,7.05
2019-06-20T09:53:05.738Z,7.25
2019-06-20T09:55:36.584Z,7.47
2019-06-20T09:58:07.922Z,7.87
2019-06-20T10:00:37.965Z,7.75
2019-06-20T10:03:07.529Z,7.85
2019-06-20T10:05:37.145Z,8.33
2019-06-20T10:08:06.683Z,7.08
2019-06-20T10:10:36.673Z,8.20
2019-06-20T10:13:06.080Z,7.92
2019-06-20T10:15:37.607Z,8.53
2019-06-20T10:18:07.594Z,8.15
2019-06-20T10:20:38.983Z,7.75
2019-06-20T10:23:08.823Z,8.23
2019-06-20T10:25:39.529Z,8.55
2019-06-20T10:28:09.082Z,8.18
2019-06-20T10:30:38.528Z,7.78
2019-06-20T10:33:10.665Z,7.62
2019-06-20T10:35:41.726Z,8.55
2019-06-20T10:38:12.111Z,8.88
2019-06-20T10:40:41.919Z,7.87
2019-06-20T10:43:11.582Z,11.65
2019-06-20T10:45:44.076Z,9.38
2019-06-20T10:48:13.185Z,9.63
2019-06-20T10:50:46.246Z,19.92
2019-06-20T10:53:15.998Z,9.28
2019-06-20T10:55:46.964Z,10.88
2019-06-20T10:58:16.917Z,9.78
2019-06-20T11:00:46.525Z,11.60
2019-06-20T11:03:16.687Z,13.75
2019-06-20T11:05:48.057Z,9.70
2019-06-20T11:08:19.256Z,9.75
2019-06-20T11:10:50.824Z,9.45
2019-06-20T11:13:20.682Z,9.43
2019-06-20T11:15:53.810Z,10.63
2019-06-20T11:18:23.704Z,9.63
2019-06-20T11:20:53.495Z,15.93
2019-06-20T11:23:23.291Z,14.18
2019-06-20T11:25:53.329Z,31.10
2019-06-20T11:28:23.112Z,9.30
2019-06-20T11:30:59.949Z,9.05
2019-06-20T11:33:24.891Z,16.10
2019-06-20T11:35:54.727Z,11.45
2019-06-20T11:38:24.575Z,53.58
2019-06-20T20:13:08.211Z,14.43
2019-06-20T20:15:37.729Z,13.28
2019-06-20T20:18:07.431Z,14.15
2019-06-20T20:20:37.033Z,13.90
2019-06-20T20:23:06.851Z,14.18
2019-06-20T20:25:36.356Z,14.35
2019-06-20T20:28:05.846Z,14.00
2019-06-20T20:30:35.373Z,13.60
2019-06-20T20:33:05.588Z,13.35
2019-06-20T20:35:36.161Z,14.05
2019-06-20T20:38:05.808Z,13.95
2019-06-20T20:40:35.409Z,14.00
2019-06-20T20:43:04.879Z,14.03
2019-06-20T20:45:34.432Z,13.28
2019-06-20T20:48:04.476Z,14.13
2019-06-20T20:50:33.944Z,13.80
2019-06-20T20:53:03.429Z,14.70
2019-06-20T20:55:32.903Z,12.93
2019-06-20T20:58:02.426Z,12.47
2019-06-20T21:00:35.055Z,13.13
2019-06-20T21:03:07.306Z,13.18
2019-06-20T21:05:50.693Z,12.75
2019-06-20T21:08:07.246Z,14.05
2019-06-20T21:10:36.708Z,13.78
2019-06-20T21:13:06.088Z,13.78
2019-06-20T21:15:35.583Z,13.95
2019-06-20T21:18:05.172Z,14.40
2019-06-20T21:20:34.674Z,14.35
2019-06-20T21:23:04.172Z,14.95
2019-06-20T21:25:33.645Z,14.15
2019-06-20T21:28:03.181Z,14.03
2019-06-20T21:30:32.896Z,13.93
2019-06-20T21:33:02.433Z,14.15
2019-06-20T21:35:31.907Z,14.10
2019-06-20T21:38:01.405Z,14.07
2019-06-20T21:40:31.909Z,14.10
2019-06-20T21:43:01.437Z,13.95
2019-06-20T21:45:30.835Z,13.98
2019-06-20T21:48:01.515Z,14.18
2019-06-20T21:50:31.028Z,13.30
2019-06-20T21:53:00.507Z,14.07
2019-06-20T21:55:29.971Z,13.35
2019-06-20T21:57:59.489Z,13.30
2019-06-20T22:00:33.709Z,13.95
2019-06-20T22:03:05.934Z,15.28
2019-06-20T22:05:35.476Z,15.28
2019-06-20T22:08:05.825Z,14.80
2019-06-20T22:10:35.307Z,14.33
2019-06-20T22:13:05.531Z,15.08
2019-06-20T22:15:35.107Z,15.48
2019-06-20T22:18:04.955Z,15.63
2019-06-20T22:20:34.554Z,15.83
2019-06-20T22:23:04.362Z,14.85
2019-06-20T22:25:34.077Z,15.55
2019-06-20T22:28:04.188Z,14.73
2019-06-20T22:30:36.663Z,14.83
2019-06-20T22:33:06.200Z,15.38
2019-06-20T22:35:35.785Z,16.70
2019-06-20T22:38:05.396Z,16.65
2019-06-20T22:40:34.911Z,18.00
2019-06-20T22:43:04.628Z,19.45
2019-06-20T22:45:35.339Z,20.62
2019-06-20T22:48:06.345Z,21.15
2019-06-20T22:50:35.981Z,20.60
2019-06-20T22:53:05.796Z,21.70
2019-06-20T22:55:36.222Z,21.73
2019-06-20T22:58:06.695Z,20.50
2019-06-20T23:00:36.385Z,21.55
2019-06-20T23:03:06.453Z,22.30
2019-06-20T23:05:36.170Z,21.57
2019-06-20T23:08:05.998Z,22.07
2019-06-20T23:10:35.605Z,21.42
2019-06-20T23:13:05.419Z,21.75
2019-06-20T23:15:34.925Z,20.97
2019-06-20T23:18:04.944Z,19.87
2019-06-20T23:20:34.543Z,18.90
2019-06-20T23:23:04.262Z,19.12
2019-06-20T23:25:34.591Z,19.35
2019-06-20T23:28:04.591Z,19.77
2019-06-20T23:30:34.204Z,18.87
2019-06-20T23:33:03.807Z,20.45
2019-06-20T23:35:33.712Z,19.55
2019-06-20T23:38:03.265Z,19.10
2019-06-20T23:40:32.936Z,18.55
2019-06-20T23:43:02.406Z,20.27
2019-06-20T23:45:31.956Z,20.48
2019-06-20T23:48:01.708Z,19.60
2019-06-20T23:50:31.285Z,19.85
2019-06-20T23:53:02.404Z,19.32
2019-06-20T23:55:32.626Z,20.30
2019-06-20T23:58:02.131Z,19.37
